Time;durP1;ratioP1;P1;durP2;ratioP2;P2;SDS_P1;SDS_P2;PMS_P1;PMS_P2;Temp;Humidity;BMP_temperature;BMP_pressure;BME280_temperature;BME280_humidity;BME280_pressure;Samples;Min_cycle;Max_cycle;Signal;HPM_P1;HPM_P2
2023/12/08 00:01:55;;;;;;;0.13;0.13;;;;;;;6.62;57.98;101556.72;5017590;28;20382;-93
2023/12/08 00:04:21;;;;;;;1.25;1.25;;;;;;;6.67;58.05;101562.47;5018963;28;20420;-93
2023/12/08 00:06:46;;;;;;;0.22;0.22;;;;;;;6.74;57.89;101563.66;5017370;28;20396;-93
2023/12/08 00:09:12;;;;;;;2.10;0.73;;;;;;;6.77;57.71;101568.69;5015472;28;20398;-92
2023/12/08 00:11:47;;;;;;;0.30;0.30;;;;;;;6.69;57.75;101552.63;5016003;28;20394;-94
2023/12/08 00:14:15;;;;;;;0.60;0.60;;;;;;;6.67;57.86;101567.72;5017028;28;20838;-93
2023/12/08 00:16:41;;;;;;;0.90;0.82;;;;;;;6.75;58.00;101567.94;5015285;28;20916;-93
2023/12/08 00:19:08;;;;;;;1.00;1.00;;;;;;;6.88;57.58;101571.25;5013847;28;20386;-93
2023/12/08 00:21:34;;;;;;;2.85;2.42;;;;;;;6.82;57.84;101579.66;5010963;28;20412;-89
2023/12/08 00:23:59;;;;;;;2.30;1.52;;;;;;;6.85;58.10;101582.06;5012748;28;20422;-87
2023/12/08 00:26:25;;;;;;;1.00;1.00;;;;;;;6.92;57.74;101577.13;5012219;28;20422;-84
2023/12/08 00:28:50;;;;;;;0.50;0.50;;;;;;;6.86;57.82;101583.75;5032208;28;20389;-85
2023/12/08 00:31:16;;;;;;;0.27;0.27;;;;;;;6.79;57.46;101579.06;5023684;28;20770;-90
2023/12/08 00:33:43;;;;;;;0.10;0.10;;;;;;;6.86;57.74;101590.78;5011590;28;20410;-85
2023/12/08 00:36:16;;;;;;;0.60;0.60;;;;;;;6.91;57.56;101582.53;5029238;28;20401;-90
2023/12/08 00:38:44;;;;;;;0.10;0.10;;;;;;;6.94;57.64;101579.66;5013206;28;20397;-84
2023/12/08 00:41:10;;;;;;;0.13;0.13;;;;;;;6.97;57.32;101587.28;5012913;28;20433;-89
2023/12/08 00:43:36;;;;;;;0.25;0.25;;;;;;;6.94;57.27;101584.91;5012542;28;20385;-86
2023/12/08 00:46:04;;;;;;;0.20;0.20;;;;;;;6.81;57.30;101571.91;5016220;28;20394;-87
2023/12/08 00:48:30;;;;;;;0.35;0.35;;;;;;;6.80;57.60;101576.31;5003188;28;20409;-87
2023/12/08 00:50:56;;;;;;;0.13;0.13;;;;;;;6.94;57.18;101579.66;5024535;28;20383;-82
2023/12/08 00:53:21;;;;;;;0.40;0.40;;;;;;;7.01;57.11;101580.81;5003053;28;20820;-84
2023/12/08 00:55:47;;;;;;;0.20;0.20;;;;;;;6.99;57.24;101575.66;5014866;28;20398;-86
2023/12/08 00:58:15;;;;;;;0.23;0.23;;;;;;;7.03;57.25;101571.81;5013869;28;20386;-84
2023/12/08 01:00:41;;;;;;;0.70;0.60;;;;;;;6.97;57.13;101577.59;5015009;28;20917;-85
2023/12/08 01:03:06;;;;;;;0.20;0.20;;;;;;;6.97;57.66;101574.97;5015641;28;20417;-84
2023/12/08 01:05:32;;;;;;;0.90;0.90;;;;;;;6.96;57.41;101575.09;4992493;28;20437;-84
2023/12/08 01:08:00;;;;;;;0.30;0.30;;;;;;;6.96;57.19;101575.91;4990339;28;20444;-86
2023/12/08 01:10:25;;;;;;;0.30;0.30;;;;;;;6.96;57.18;101573.28;4973842;28;20405;-84
2023/12/08 01:12:54;;;;;;;0.70;0.60;;;;;;;6.96;57.17;101575.91;4973901;28;20405;-85
2023/12/08 01:15:31;;;;;;;0.45;0.45;;;;;;;7.06;57.16;101574.19;4989029;28;20413;-82
2023/12/08 01:17:57;;;;;;;0.20;0.20;;;;;;;7.05;57.18;101566.41;4971388;28;20398;-86
2023/12/08 01:20:22;;;;;;;0.60;0.60;;;;;;;7.04;57.07;101559.44;4971841;28;20497;-83
2023/12/08 01:22:49;;;;;;;0.40;0.40;;;;;;;7.08;57.01;101566.16;4987779;28;20398;-81
2023/12/08 01:25:15;;;;;;;0.63;0.60;;;;;;;7.06;57.09;101565.47;4971165;28;20973;-84
2023/12/08 01:27:41;;;;;;;0.60;0.60;;;;;;;7.05;57.09;101563.78;4989163;28;20390;-89
2023/12/08 01:30:12;;;;;;;0.17;0.17;;;;;;;7.08;57.03;101571.44;4989949;28;20448;-85
2023/12/08 01:32:39;;;;;;;0.25;0.25;;;;;;;7.04;56.96;101568.22;4989523;28;20809;-84
2023/12/08 01:35:05;;;;;;;0.32;0.32;;;;;;;7.04;56.94;101565.59;4975442;28;20393;-86
2023/12/08 01:37:31;;;;;;;2.97;0.60;;;;;;;7.01;56.96;101565.81;4991584;28;20398;-86
2023/12/08 01:39:56;;;;;;;0.20;0.20;;;;;;;7.06;56.67;101560.19;4991655;28;20883;-84
2023/12/08 01:42:25;;;;;;;0.20;0.20;;;;;;;7.02;56.70;101559.59;4995746;28;20392;-84
2023/12/08 01:44:51;;;;;;;0.50;0.40;;;;;;;7.07;56.66;101556.56;5009520;28;20907;-86
2023/12/08 01:47:19;;;;;;;1.20;0.50;;;;;;;7.06;56.53;101553.13;5008819;28;20404;-88
2023/12/08 01:49:45;;;;;;;0.10;0.10;;;;;;;7.06;56.61;101563.66;5009438;28;20392;-82
2023/12/08 01:52:15;;;;;;;0.57;0.57;;;;;;;6.96;57.03;101546.91;4992478;28;20395;-85
2023/12/08 01:54:43;;;;;;;0.20;0.20;;;;;;;7.01;56.90;101554.47;5010493;28;20455;-83
2023/12/08 01:57:08;;;;;;;0.47;0.47;;;;;;;6.90;57.24;101547.44;5007984;28;20395;-84
2023/12/08 01:59:34;;;;;;;0.40;0.40;;;;;;;6.90;57.13;101547.44;5008765;28;20479;-84
2023/12/08 02:02:00;;;;;;;0.68;0.68;;;;;;;6.89;57.20;101548.38;5016341;28;20462;-84
2023/12/08 02:04:36;;;;;;;0.30;0.30;;;;;;;6.83;56.95;101539.19;5022972;28;20423;-85
2023/12/08 02:07:07;;;;;;;0.57;0.57;;;;;;;6.88;57.49;101546.72;5026004;28;20426;-84
2023/12/08 02:09:38;;;;;;;0.63;0.63;;;;;;;6.82;57.18;101534.84;5024262;28;20403;-86
2023/12/08 02:12:15;;;;;;;0.30;0.30;;;;;;;6.93;57.34;101552.44;4994444;28;20408;-85
2023/12/08 02:14:44;;;;;;;0.30;0.30;;;;;;;6.80;57.14;101539.41;5009262;28;20416;-88
2023/12/08 02:17:23;;;;;;;0.50;0.30;;;;;;;6.74;57.35;101539.09;4992091;28;20396;-88
2023/12/08 02:19:49;;;;;;;0.50;0.50;;;;;;;6.86;57.42;101538.94;4992734;28;20400;-86
2023/12/08 02:22:18;;;;;;;0.38;0.38;;;;;;;6.86;57.33;101538.06;5009017;28;20767;-88
2023/12/08 02:24:44;;;;;;;0.40;0.40;;;;;;;6.80;57.08;101539.41;4991780;28;20396;-83
2023/12/08 02:27:11;;;;;;;0.40;0.40;;;;;;;6.80;57.02;101538.59;5007682;28;20525;-84
2023/12/08 02:29:37;;;;;;;0.50;0.50;;;;;;;6.74;56.99;101533.84;4992615;28;21024;-85
2023/12/08 02:32:42;;;;;;;0.50;0.50;;;;;;;6.69;57.67;101536.81;4994008;28;20410;-84
2023/12/08 02:35:09;;;;;;;0.90;0.90;;;;;;;6.74;57.32;101536.47;5000431;28;20408;-82
2023/12/08 02:37:37;;;;;;;0.35;0.35;;;;;;;6.83;57.30;101533.06;5026128;28;20409;-86
2023/12/08 02:40:05;;;;;;;0.90;0.90;;;;;;;6.81;57.20;101532.38;5013133;28;20405;-83
2023/12/08 02:42:31;;;;;;;0.65;0.65;;;;;;;6.72;57.16;101531.31;5012913;28;20517;-83
2023/12/08 02:44:56;;;;;;;0.50;0.50;;;;;;;6.70;57.18;101531.44;5013127;28;20425;-84
2023/12/08 02:47:22;;;;;;;0.50;0.50;;;;;;;6.73;57.17;101535.59;5030372;28;20393;-86
2023/12/08 02:49:47;;;;;;;0.70;0.60;;;;;;;6.70;57.43;101541.16;5013426;28;21035;-85
2023/12/08 02:52:14;;;;;;;0.80;0.80;;;;;;;6.72;57.49;101543.63;5014868;28;20398;-85
2023/12/08 02:54:40;;;;;;;0.35;0.35;;;;;;;6.73;57.14;101535.59;5033703;28;20882;-84
2023/12/08 02:57:05;;;;;;;0.30;0.30;;;;;;;6.70;57.22;101543.78;5049457;28;20397;-85
2023/12/08 02:59:31;;;;;;;0.70;0.70;;;;;;;6.69;57.49;101540.28;5016008;28;20398;-87
2023/12/08 03:01:59;;;;;;;0.80;0.80;;;;;;;6.75;57.13;101538.13;5013032;28;20389;-85
2023/12/08 03:04:24;;;;;;;0.32;0.32;;;;;;;6.72;57.06;101533.94;5030170;28;20806;-86
2023/12/08 03:07:03;;;;;;;;;;;;;;;;;;;;;
2023/12/08 03:09:29;;;;;;;1.27;1.17;;;;;;;6.67;57.25;101533.47;5029557;28;20388;-82
2023/12/08 03:11:55;;;;;;;0.50;0.50;;;;;;;6.68;56.97;101529.88;5030414;28;20383;-84
2023/12/08 03:14:40;;;;;;;0.40;0.40;;;;;;;6.75;56.97;101528.41;5012322;28;20414;-84
2023/12/08 03:17:05;;;;;;;0.30;0.30;;;;;;;6.77;57.18;101541.47;5011345;28;20965;-84
2023/12/08 03:19:32;;;;;;;0.30;0.30;;;;;;;6.79;56.90;101545.66;5011911;28;20478;-85
2023/12/08 03:21:58;;;;;;;0.40;0.40;;;;;;;6.74;56.83;101541.75;5010926;28;20758;-87
2023/12/08 03:24:24;;;;;;;0.47;0.47;;;;;;;6.67;57.03;101541.38;5011662;28;20936;-83
2023/12/08 03:26:54;;;;;;;0.55;0.47;;;;;;;6.67;56.97;101536.94;5011412;28;21021;-84
2023/12/08 03:29:19;;;;;;;0.40;0.40;;;;;;;6.70;57.09;101546.41;4995245;28;20399;-85
2023/12/08 03:31:45;;;;;;;1.10;1.00;;;;;;;6.73;56.83;101547.94;5010929;28;20406;-84
2023/12/08 03:34:11;;;;;;;0.37;0.37;;;;;;;6.69;56.64;101547.38;5011273;28;20421;-84
2023/12/08 03:36:40;;;;;;;2.37;1.87;;;;;;;6.59;57.04;101542.00;5028937;28;20418;-83
2023/12/08 03:39:06;;;;;;;0.40;0.40;;;;;;;6.55;56.76;101555.53;5011834;28;20475;-83
2023/12/08 03:41:35;;;;;;;0.30;0.30;;;;;;;6.51;57.00;101545.25;5011176;28;20792;-82
2023/12/08 03:44:00;;;;;;;0.35;0.35;;;;;;;6.57;56.88;101554.47;5010949;28;20403;-87
2023/12/08 03:46:26;;;;;;;0.20;0.20;;;;;;;6.63;56.85;101551.34;5011464;28;20385;-84
2023/12/08 03:48:52;;;;;;;0.43;0.43;;;;;;;6.77;56.84;101558.13;5011288;28;20452;-85
2023/12/08 03:51:17;;;;;;;0.60;0.60;;;;;;;6.80;56.46;101549.97;5011201;28;20394;-81
2023/12/08 03:53:43;;;;;;;0.20;0.20;;;;;;;6.91;56.60;101550.88;5010544;28;20406;-84
2023/12/08 03:56:14;;;;;;;0.30;0.30;;;;;;;6.93;56.36;101549.78;5028573;28;20785;-87
2023/12/08 03:58:40;;;;;;;0.40;0.40;;;;;;;6.94;56.34;101546.22;5011869;28;20429;-88
2023/12/08 04:01:05;;;;;;;0.40;0.40;;;;;;;6.98;56.38;101547.63;5010987;28;20398;-88
2023/12/08 04:03:31;;;;;;;0.63;0.63;;;;;;;6.97;56.22;101547.75;5010178;28;20465;-85
2023/12/08 04:05:57;;;;;;;0.40;0.40;;;;;;;6.97;56.48;101551.22;5009799;28;20758;-88
2023/12/08 04:08:22;;;;;;;0.30;0.30;;;;;;;6.99;56.35;101551.94;5010856;28;20449;-92
2023/12/08 04:10:48;;;;;;;0.40;0.40;;;;;;;7.03;56.35;101557.78;5013503;28;20749;-89
2023/12/08 04:13:14;;;;;;;0.50;0.50;;;;;;;6.97;56.67;101550.38;5011683;28;20493;-90
2023/12/08 04:15:39;;;;;;;0.20;0.20;;;;;;;7.01;56.27;101552.66;5008437;28;20541;-90
2023/12/08 04:18:05;;;;;;;0.30;0.30;;;;;;;7.02;56.31;101551.69;5008242;28;20908;-89
2023/12/08 04:20:32;;;;;;;0.60;0.52;;;;;;;7.04;56.25;101565.59;4990979;28;20721;-88
2023/12/08 04:23:04;;;;;;;0.20;0.20;;;;;;;7.10;56.03;101566.06;5012070;28;20471;-89
2023/12/08 04:25:30;;;;;;;0.35;0.35;;;;;;;7.16;56.22;101569.00;5008813;28;20413;-88
2023/12/08 04:27:56;;;;;;;0.13;0.13;;;;;;;7.14;55.99;101567.47;5009335;28;20403;-88
2023/12/08 04:30:24;;;;;;;0.22;0.22;;;;;;;7.12;56.24;101564.94;5008898;28;20399;-91
2023/12/08 04:32:50;;;;;;;0.63;0.37;;;;;;;7.15;56.14;101564.69;5010418;28;20419;-89
2023/12/08 04:35:16;;;;;;;0.30;0.30;;;;;;;7.15;56.12;101566.47;5010182;28;20388;-87
2023/12/08 04:37:41;;;;;;;1.20;0.90;;;;;;;7.16;55.91;101576.06;5016706;28;20432;-88
2023/12/08 04:40:08;;;;;;;0.60;0.60;;;;;;;7.13;56.00;101569.28;5020653;28;20398;-88
2023/12/08 04:42:36;;;;;;;0.33;0.20;;;;;;;7.03;56.29;101576.25;5020683;28;20764;-90
2023/12/08 04:45:03;;;;;;;0.60;0.60;;;;;;;7.06;56.30;101571.56;5008509;28;20400;-89
2023/12/08 04:47:29;;;;;;;1.20;1.10;;;;;;;7.06;56.15;101570.75;5009344;28;20747;-89
2023/12/08 04:49:55;;;;;;;0.30;0.30;;;;;;;7.17;55.99;101585.69;5006068;28;20954;-88
2023/12/08 04:52:20;;;;;;;0.20;0.20;;;;;;;7.17;56.09;101575.13;5005693;28;20392;-88
2023/12/08 04:54:46;;;;;;;0.20;0.20;;;;;;;7.20;56.24;101582.75;5008746;28;20394;-89
2023/12/08 04:57:11;;;;;;;0.53;0.27;;;;;;;7.14;55.91;101575.38;5018696;28;20402;-89
2023/12/08 04:59:38;;;;;;;0.80;0.53;;;;;;;7.21;55.79;101580.00;5022572;28;20500;-90
2023/12/08 05:02:04;;;;;;;0.30;0.30;;;;;;;7.21;56.09;101579.19;5023912;28;20415;-90
2023/12/08 05:04:30;;;;;;;0.40;0.40;;;;;;;7.22;56.08;101584.31;5012303;28;20405;-91
2023/12/08 05:06:59;;;;;;;0.30;0.30;;;;;;;7.21;56.08;101582.66;5018514;28;20390;-93
2023/12/08 05:09:24;;;;;;;0.50;0.40;;;;;;;7.19;55.88;101583.75;5017409;28;20928;-95
2023/12/08 05:11:50;;;;;;;1.00;0.85;;;;;;;7.17;55.95;101586.50;5014207;28;20392;-94
2023/12/08 05:14:16;;;;;;;0.80;0.70;;;;;;;7.20;56.03;101601.22;5015879;28;20436;-87
2023/12/08 05:16:42;;;;;;;0.10;0.10;;;;;;;7.15;55.77;101584.94;5010045;28;20395;-90
2023/12/08 05:19:07;;;;;;;0.30;0.30;;;;;;;7.17;55.90;101583.03;5012597;28;20384;-90
2023/12/08 05:21:33;;;;;;;0.57;0.57;;;;;;;7.19;55.71;101589.03;5012424;28;20399;-90
2023/12/08 05:23:59;;;;;;;0.60;0.60;;;;;;;7.22;55.96;101592.25;5012784;28;20472;-88
2023/12/08 05:26:25;;;;;;;0.30;0.30;;;;;;;7.20;55.60;101595.94;5011139;28;20835;-90
2023/12/08 05:28:51;;;;;;;0.43;0.43;;;;;;;7.11;55.88;101588.78;5011599;28;20911;-89
2023/12/08 05:31:16;;;;;;;0.40;0.40;;;;;;;7.21;55.92;101592.38;4979989;28;20420;-91
2023/12/08 05:33:42;;;;;;;0.90;0.90;;;;;;;7.25;55.97;101586.69;5016106;28;20446;-91
2023/12/08 05:36:09;;;;;;;0.40;0.40;;;;;;;7.24;55.81;101585.03;5015058;28;20464;-91
2023/12/08 05:38:35;;;;;;;1.25;1.25;;;;;;;7.26;55.38;101585.75;5018425;28;20420;-93
2023/12/08 05:41:09;;;;;;;0.30;0.30;;;;;;;7.35;55.48;101592.06;5016686;28;20918;-91
2023/12/08 05:43:35;;;;;;;0.10;0.10;;;;;;;7.33;55.38;101591.34;5015363;28;20399;-89
2023/12/08 05:46:03;;;;;;;0.30;0.30;;;;;;;7.36;55.34;101591.06;5015825;28;20396;-91
2023/12/08 05:48:29;;;;;;;1.77;0.77;;;;;;;7.22;55.48;101579.06;5016870;28;20395;-95
2023/12/08 05:51:17;;;;;;;0.65;0.65;;;;;;;7.22;55.56;101588.75;5022947;28;20393;-94
2023/12/08 05:53:46;;;;;;;0.25;0.25;;;;;;;7.12;55.84;101582.56;5020942;28;20411;-91
2023/12/08 05:56:11;;;;;;;0.80;0.80;;;;;;;7.11;55.89;101602.81;5020866;28;20385;-93
2023/12/08 05:58:41;;;;;;;1.10;1.00;;;;;;;7.06;55.85;101597.09;5016022;28;20394;-92
2023/12/08 06:01:15;;;;;;;1.27;0.80;;;;;;;6.99;55.68;101602.03;5015560;28;20384;-92
2023/12/08 06:03:41;;;;;;;1.33;1.33;;;;;;;6.91;56.01;101588.63;5023792;28;20423;-94
2023/12/08 06:06:07;;;;;;;0.30;0.30;;;;;;;6.98;55.82;101587.16;5016936;28;20388;-92
2023/12/08 06:08:33;;;;;;;0.60;0.60;;;;;;;7.08;55.64;101588.09;5017581;28;20391;-93
2023/12/08 06:11:02;;;;;;;0.52;0.52;;;;;;;7.11;55.73;101588.78;5003814;28;20395;-94
2023/12/08 06:13:27;;;;;;;0.30;0.30;;;;;;;7.16;55.45;101586.63;5018371;28;20471;-91
2023/12/08 06:15:53;;;;;;;0.60;0.60;;;;;;;7.17;55.58;101583.88;5016583;28;20897;-93
2023/12/08 06:18:19;;;;;;;0.23;0.23;;;;;;;7.14;55.50;101575.38;5019155;28;20383;-91
2023/12/08 06:20:45;;;;;;;4.07;1.65;;;;;;;7.14;55.39;101585.91;5069176;23;20416;-91
2023/12/08 06:23:15;;;;;;;0.70;0.70;;;;;;;7.12;55.56;101583.41;4983844;28;20413;-91
2023/12/08 06:25:41;;;;;;;3.78;1.80;;;;;;;7.07;55.35;101586.41;5185757;23;20436;-92
2023/12/08 06:28:07;;;;;;;1.93;0.97;;;;;;;7.17;55.52;101583.03;5051186;23;20468;-93
2023/12/08 06:30:33;;;;;;;0.85;0.60;;;;;;;7.16;55.33;101584.81;5037207;28;20446;-94
2023/12/08 06:33:01;;;;;;;0.20;0.20;;;;;;;7.13;55.45;101582.44;5037408;28;20406;-91
2023/12/08 06:35:27;;;;;;;0.50;0.50;;;;;;;7.19;55.45;101587.22;5036281;28;20399;-92
2023/12/08 06:37:54;;;;;;;3.60;0.60;;;;;;;7.09;55.15;101583.66;5050192;28;20395;-91
2023/12/08 06:42:55;;;;;;;0.70;0.47;;;;;;;7.06;55.62;101573.38;5285143;23;20409;-92
2023/12/08 06:45:21;;;;;;;0.40;0.40;;;;;;;7.11;55.25;101580.88;4985500;28;20448;-91
2023/12/08 06:47:46;;;;;;;0.40;0.40;;;;;;;7.08;55.12;101582.00;4985418;28;20420;-92
2023/12/08 06:50:12;;;;;;;1.23;1.13;;;;;;;7.08;55.49;101587.25;4981187;28;20408;-90
2023/12/08 07:08:04;;;;;;;0.20;0.20;;;;;;;7.14;55.35;101601.75;5015688;28;20440;-88
2023/12/08 07:10:37;;;;;;;0.40;0.40;;;;;;;7.19;55.09;101596.94;4998539;28;20398;-91
2023/12/08 07:13:03;;;;;;;1.35;1.10;;;;;;;7.18;55.13;101584.69;5018677;28;20400;-92
2023/12/08 07:15:29;;;;;;;0.40;0.40;;;;;;;7.26;55.09;101590.19;5022085;28;20388;-92
2023/12/08 07:17:55;;;;;;;0.30;0.30;;;;;;;7.32;55.22;101597.59;5020350;28;20392;-92
2023/12/08 07:20:22;;;;;;;0.28;0.28;;;;;;;7.34;54.93;101595.66;5027723;28;20404;-92
2023/12/08 07:27:57;;;;;;;0.55;0.55;;;;;;;7.52;54.74;101605.66;5002527;28;20437;-94
2023/12/08 07:30:37;;;;;;;1.00;0.60;;;;;;;7.47;54.74;101598.09;4991653;28;20398;-94
2023/12/08 07:33:07;;;;;;;0.47;0.47;;;;;;;7.52;54.64;101597.72;5012858;28;20421;-95
2023/12/08 07:38:16;;;;;;;2.30;1.20;;;;;;;7.59;54.49;101594.44;5777615;23;20400;31
2023/12/08 07:40:45;;;;;;;1.20;0.52;;;;;;;7.57;54.67;101595.56;4970401;28;20479;-93
2023/12/08 07:43:11;;;;;;;0.55;0.55;;;;;;;7.57;54.86;101600.81;4955130;29;20460;-94
2023/12/08 07:45:40;;;;;;;3.05;1.70;;;;;;;7.58;54.78;101598.06;4986039;23;20457;-95
2023/12/08 07:50:39;;;;;;;0.85;0.70;;;;;;;7.73;54.56;101608.28;5047479;28;20457;-95
2023/12/08 07:53:14;;;;;;;0.60;0.60;;;;;;;7.66;54.71;101595.59;5049418;28;20451;-95
2023/12/08 07:55:43;;;;;;;0.90;0.90;;;;;;;7.78;54.48;101606.94;5062477;28;20935;-93
2023/12/08 07:58:09;;;;;;;0.80;0.43;;;;;;;7.77;54.45;101596.50;5025202;28;20393;-92
2023/12/08 08:00:42;;;;;;;0.40;0.30;;;;;;;7.84;54.58;101597.66;5025858;28;20395;-93
2023/12/08 08:05:43;;;;;;;0.50;0.50;;;;;;;7.87;54.60;101586.84;5023380;28;20435;-92
2023/12/08 08:08:10;;;;;;;1.23;0.73;;;;;;;7.97;54.38;101603.56;5004582;28;20395;-93
2023/12/08 08:10:39;;;;;;;0.50;0.50;;;;;;;8.10;54.49;101613.06;5004528;28;20388;-92
2023/12/08 08:13:04;;;;;;;0.60;0.60;;;;;;;8.17;54.40;101608.94;4999062;28;20427;-93
2023/12/08 08:15:33;;;;;;;0.60;0.50;;;;;;;8.15;54.26;101608.22;5001144;28;20443;-91
2023/12/08 08:17:58;;;;;;;0.28;0.28;;;;;;;8.23;54.30;101614.53;4989682;28;20408;-92
2023/12/08 08:20:25;;;;;;;0.77;0.50;;;;;;;8.32;53.81;101618.19;4996743;28;20413;-92
2023/12/08 08:22:56;;;;;;;0.20;0.20;;;;;;;8.20;54.16;101608.69;4982807;28;20409;-91
2023/12/08 08:25:26;;;;;;;0.70;0.70;;;;;;;8.14;54.17;101607.41;4967324;28;20487;-92
2023/12/08 08:28:00;;;;;;;0.60;0.60;;;;;;;8.28;53.95;101603.56;4982789;28;22884;-93
2023/12/08 08:30:26;;;;;;;0.60;0.55;;;;;;;8.36;53.85;101605.56;4958179;29;20393;-92
2023/12/08 08:32:53;;;;;;;0.60;0.60;;;;;;;8.31;53.90;101613.88;4957747;29;20420;-92
2023/12/08 08:35:23;;;;;;;2.20;2.00;;;;;;;8.34;53.91;101608.31;4957132;28;20546;-92
2023/12/08 08:37:52;;;;;;;0.50;0.50;;;;;;;8.38;53.74;101609.72;4942557;29;20397;-91
2023/12/08 08:40:20;;;;;;;0.93;0.87;;;;;;;8.46;53.62;101603.78;4955848;29;20465;-93
2023/12/08 08:42:48;;;;;;;0.60;0.60;;;;;;;8.64;54.20;101596.06;4958531;28;20389;-90
2023/12/08 08:45:15;;;;;;;0.20;0.20;;;;;;;8.72;53.66;101593.56;4958489;29;20400;-89
2023/12/08 08:47:46;;;;;;;0.50;0.50;;;;;;;8.78;54.13;101597.47;4967338;28;20397;-93
2023/12/08 08:50:12;;;;;;;0.93;0.75;;;;;;;8.61;53.19;101593.69;4957547;28;20429;-94
2023/12/08 08:52:41;;;;;;;0.47;0.47;;;;;;;8.60;54.18;101599.94;4940204;29;20857;-89
2023/12/08 08:55:10;;;;;;;0.40;0.40;;;;;;;8.74;53.65;101594.28;4956479;29;20406;-91
2023/12/08 08:57:37;;;;;;;0.43;0.43;;;;;;;8.75;53.76;101589.81;4956319;29;20492;-87
2023/12/08 09:00:09;;;;;;;0.40;0.40;;;;;;;8.73;53.22;101587.34;4953902;29;20393;-85
2023/12/08 09:02:35;;;;;;;0.40;0.40;;;;;;;8.76;53.32;101586.22;4928466;29;20391;-90
2023/12/08 09:05:00;;;;;;;0.60;0.60;;;;;;;8.86;52.95;101584.44;4954915;29;20436;-90
2023/12/08 09:07:26;;;;;;;0.23;0.23;;;;;;;8.93;53.28;101587.34;4983928;28;20413;-88
2023/12/08 09:09:55;;;;;;;0.40;0.40;;;;;;;8.75;51.72;101577.47;4998805;28;20403;-85
2023/12/08 09:12:20;;;;;;;0.85;0.85;;;;;;;8.73;52.78;101571.47;4972641;28;20383;-90
2023/12/08 09:14:48;;;;;;;0.50;0.50;;;;;;;8.77;52.71;101569.41;4988296;28;20906;-92
2023/12/08 09:17:19;;;;;;;0.13;0.13;;;;;;;8.91;52.71;101569.00;5006657;28;20444;-86
2023/12/08 09:19:51;;;;;;;0.55;0.52;;;;;;;8.91;52.34;101568.13;5004247;28;20425;-92
2023/12/08 09:22:21;;;;;;;0.20;0.20;;;;;;;8.75;52.10;101561.59;4987078;28;20511;-91
2023/12/08 09:24:46;;;;;;;0.40;0.38;;;;;;;8.75;52.10;101568.66;4984542;28;20414;-88
2023/12/08 09:27:13;;;;;;;1.10;1.10;;;;;;;8.87;52.50;101562.28;4984846;28;20390;-90
2023/12/08 10:02:01;;;;;;;0.40;0.40;;;;;;;9.51;50.84;101537.06;4999966;28;20442;-89
2023/12/08 10:04:28;;;;;;;0.70;0.70;;;;;;;9.35;49.99;101527.06;4982250;28;20402;-89
2023/12/08 10:06:58;;;;;;;0.50;0.50;;;;;;;9.32;50.80;101526.50;4982301;28;20674;-89
2023/12/08 10:09:27;;;;;;;0.30;0.30;;;;;;;9.48;50.83;101526.75;4981603;28;20759;-90
2023/12/08 10:11:56;;;;;;;0.40;0.40;;;;;;;9.59;50.74;101528.38;4982353;28;20401;-89
2023/12/08 10:14:25;;;;;;;0.70;0.70;;;;;;;9.61;50.17;101533.53;4982062;28;20402;-90
2023/12/08 10:17:00;;;;;;;0.20;0.20;;;;;;;9.70;50.37;101532.69;4980350;28;20481;-90
2023/12/08 10:19:26;;;;;;;0.20;0.20;;;;;;;9.80;50.35;101527.38;4981748;28;20477;-89
2023/12/08 10:22:02;;;;;;;0.47;0.47;;;;;;;9.92;49.91;101526.19;4983195;28;20429;-89
2023/12/08 10:24:31;;;;;;;0.50;0.40;;;;;;;9.90;50.34;101521.06;4981107;28;20505;-88
2023/12/08 10:26:59;;;;;;;0.50;0.50;;;;;;;9.97;50.43;101526.59;4975961;28;20422;-88
2023/12/08 10:29:29;;;;;;;0.50;0.50;;;;;;;9.76;49.99;101526.81;4969435;28;20469;-87
2023/12/08 10:31:57;;;;;;;0.70;0.70;;;;;;;9.25;47.67;101522.75;4977920;28;20440;-88
2023/12/08 10:34:24;;;;;;;0.17;0.17;;;;;;;9.10;49.45;101519.72;4962046;28;20959;-88
2023/12/08 10:36:49;;;;;;;0.68;0.68;;;;;;;9.26;49.25;101514.69;4974804;28;20486;-87
2023/12/08 10:39:19;;;;;;;0.20;0.20;;;;;;;9.16;48.44;101525.28;4981055;28;20402;-89
2023/12/08 10:41:52;;;;;;;0.57;0.57;;;;;;;9.12;48.16;101517.75;4978469;28;20386;-88
2023/12/08 10:44:24;;;;;;;0.20;0.20;;;;;;;9.19;48.77;101510.94;4981059;28;20390;-88
2023/12/08 10:46:57;;;;;;;0.10;0.10;;;;;;;8.67;48.01;101510.38;4997353;28;20403;-89
2023/12/08 10:49:23;;;;;;;0.20;0.20;;;;;;;8.84;48.57;101514.13;4982308;28;20536;-88
2023/12/08 10:51:49;;;;;;;0.28;0.28;;;;;;;8.92;48.79;101507.19;4987946;28;20496;-88
2023/12/08 10:54:18;;;;;;;0.40;0.40;;;;;;;9.30;48.18;101518.69;4996495;28;20398;-91
2023/12/08 10:56:46;;;;;;;0.10;0.10;;;;;;;9.34;48.00;101513.97;4997345;28;20397;-89
2023/12/08 10:59:17;;;;;;;0.93;0.82;;;;;;;9.36;48.43;101509.34;4965704;28;20425;-89
2023/12/08 11:01:44;;;;;;;0.13;0.13;;;;;;;9.44;48.37;101514.78;4982014;28;20416;-88
2023/12/08 11:04:13;;;;;;;0.10;0.10;;;;;;;9.51;48.30;101521.19;4980978;28;20422;-87
2023/12/08 11:07:10;;;;;;;0.10;0.10;;;;;;;9.55;48.36;101511.97;4981287;28;20394;-87
2023/12/08 11:09:42;;;;;;;0.20;0.20;;;;;;;9.44;47.47;101509.50;4966227;28;20386;-87
2023/12/08 11:12:13;;;;;;;0.35;0.35;;;;;;;9.21;47.59;101497.56;4974513;28;20449;-88
2023/12/08 11:14:42;;;;;;;0.20;0.20;;;;;;;9.25;47.99;101506.88;4999749;28;20410;-87
2023/12/08 11:17:27;;;;;;;0.30;0.30;;;;;;;9.18;47.79;101502.16;5002497;28;20390;-87
2023/12/08 11:19:54;;;;;;;0.10;0.10;;;;;;;9.42;48.01;101490.28;4968785;28;20405;-87
2023/12/08 11:22:20;;;;;;;0.10;0.10;;;;;;;9.68;47.93;101502.88;4977976;28;20400;-87
2023/12/08 11:24:46;;;;;;;0.20;0.20;;;;;;;9.80;47.79;101496.41;4978549;28;20452;-88
2023/12/08 11:27:30;;;;;;;0.90;0.52;;;;;;;9.70;47.59;101499.09;4979689;28;20410;-88
2023/12/08 11:30:09;;;;;;;0.80;0.80;;;;;;;9.61;47.88;101491.19;4978115;28;20401;-87
2023/12/08 11:32:46;;;;;;;0.28;0.28;;;;;;;9.65;47.98;101500.50;4977852;28;20844;-87
2023/12/08 11:35:18;;;;;;;0.47;0.40;;;;;;;9.58;47.34;101497.63;4981029;28;20781;-89
2023/12/08 11:37:46;;;;;;;0.10;0.10;;;;;;;9.67;47.93;101486.16;4964334;28;20405;-89
2023/12/08 11:40:19;;;;;;;0.35;0.35;;;;;;;9.69;47.81;101486.84;4979401;28;20382;-90
2023/12/08 11:42:48;;;;;;;0.70;0.60;;;;;;;9.71;47.42;101481.41;5002040;28;20897;-89
2023/12/08 11:45:18;;;;;;;0.82;0.82;;;;;;;9.60;47.68;101481.56;4970689;28;20402;-89
2023/12/08 11:47:47;;;;;;;0.45;0.40;;;;;;;8.96;46.92;101486.59;4982656;28;20408;-88
2023/12/08 11:50:17;;;;;;;0.40;0.40;;;;;;;9.02;47.58;101483.41;4998697;28;20896;-90
2023/12/08 11:52:42;;;;;;;1.90;0.70;;;;;;;9.21;47.00;101493.09;4963097;28;20402;-88
2023/12/08 11:55:26;;;;;;;0.57;0.57;;;;;;;8.97;46.98;101482.97;4965543;28;20401;-90
2023/12/08 11:58:05;;;;;;;0.45;0.45;;;;;;;9.01;47.57;101497.56;4964957;28;20398;-88
2023/12/08 12:00:36;;;;;;;0.80;0.80;;;;;;;9.08;47.23;101488.09;4979104;28;20440;-89
2023/12/08 12:03:10;;;;;;;0.25;0.25;;;;;;;9.22;47.32;101483.34;4978735;28;20405;-88
2023/12/08 12:05:45;;;;;;;0.30;0.30;;;;;;;9.26;47.22;101482.94;4981658;28;20386;-90
2023/12/08 12:08:16;;;;;;;0.50;0.50;;;;;;;9.26;47.49;101482.09;4981539;28;20401;-88
2023/12/08 12:10:43;;;;;;;0.20;0.20;;;;;;;9.01;47.04;101487.00;4980265;28;20468;-87
2023/12/08 12:13:13;;;;;;;0.30;0.30;;;;;;;8.92;47.39;101483.38;4979590;28;20489;-87
2023/12/08 12:15:40;;;;;;;0.30;0.30;;;;;;;8.97;47.51;101481.16;4980548;28;20390;-89
2023/12/08 12:18:10;;;;;;;0.50;0.50;;;;;;;9.13;47.20;101470.00;4997167;28;20457;-88
2023/12/08 12:20:40;;;;;;;0.50;0.50;;;;;;;9.09;47.29;101491.59;4981102;28;20385;-88
2023/12/08 12:23:11;;;;;;;0.85;0.52;;;;;;;8.86;47.66;101483.97;4996557;28;20385;-88
2023/12/08 12:25:42;;;;;;;0.20;0.20;;;;;;;8.88;47.89;101481.19;4994945;28;20921;-88
2023/12/08 12:28:08;;;;;;;0.40;0.40;;;;;;;9.05;47.84;101491.03;4977775;28;20385;-88
2023/12/08 12:30:34;;;;;;;0.30;0.30;;;;;;;9.14;47.45;101494.63;4977135;28;20480;-86
2023/12/08 12:33:04;;;;;;;0.70;0.50;;;;;;;9.11;47.60;101484.34;4978708;28;20445;-90
2023/12/08 12:35:31;;;;;;;0.20;0.20;;;;;;;9.22;47.63;101491.28;4977883;28;20456;-88
2023/12/08 12:37:57;;;;;;;0.60;0.60;;;;;;;9.17;47.30;101487.25;4995308;28;20394;-89
2023/12/08 12:40:24;;;;;;;0.22;0.22;;;;;;;9.12;47.50;101492.13;4946425;28;20390;-88
2023/12/08 12:42:50;;;;;;;0.50;0.50;;;;;;;9.15;47.38;101476.00;5002942;28;20392;-89